createdAt,value
2022-09-18T00:00:16.928Z,24.46
2022-09-18T00:00:47.034Z,24.49
2022-09-18T00:01:17.145Z,24.47
2022-09-18T00:01:47.296Z,24.47
2022-09-18T00:02:17.440Z,24.47
2022-09-18T00:02:47.479Z,24.46
2022-09-18T00:03:17.661Z,24.44
2022-09-18T00:03:47.652Z,24.44
2022-09-18T00:04:17.528Z,24.49
2022-09-18T00:04:47.639Z,24.46
2022-09-18T00:05:17.747Z,24.46
2022-09-18T00:05:47.862Z,24.44
2022-09-18T00:06:17.973Z,24.47
2022-09-18T00:06:48.086Z,24.49
2022-09-18T00:07:18.188Z,24.47
2022-09-18T00:07:48.294Z,24.44
2022-09-18T00:08:18.403Z,24.44
2022-09-18T00:08:48.511Z,24.46
2022-09-18T00:09:18.617Z,24.46
2022-09-18T00:09:48.728Z,24.44
2022-09-18T00:10:18.834Z,24.46
2022-09-18T00:10:48.951Z,24.46
2022-09-18T00:11:19.056Z,24.47
2022-09-18T00:11:49.166Z,24.44
2022-09-18T00:12:19.273Z,24.44
2022-09-18T00:12:49.383Z,24.43
2022-09-18T00:13:19.493Z,24.43
2022-09-18T00:13:49.599Z,24.44
2022-09-18T00:14:19.726Z,24.43
2022-09-18T00:14:49.816Z,24.46
2022-09-18T00:15:19.926Z,24.44
2022-09-18T00:15:50.135Z,24.44
2022-09-18T00:16:20.293Z,24.43
2022-09-18T00:16:50.107Z,24.43
2022-09-18T00:17:20.223Z,24.43
2022-09-18T00:17:50.335Z,24.42
2022-09-18T00:18:20.456Z,24.44
2022-09-18T00:18:50.421Z,24.43
2022-09-18T00:19:20.405Z,24.43
2022-09-18T00:19:50.512Z,24.43
2022-09-18T00:20:20.660Z,24.44
2022-09-18T00:20:50.641Z,24.43
2022-09-18T00:21:20.750Z,24.43
2022-09-18T00:21:50.870Z,24.40
2022-09-18T00:22:20.967Z,24.40
2022-09-18T00:22:51.076Z,24.44
2022-09-18T00:23:21.184Z,24.44
2022-09-18T00:23:51.298Z,24.40
2022-09-18T00:24:21.405Z,24.43
2022-09-18T00:24:51.527Z,24.43
2022-09-18T00:25:21.505Z,24.43
2022-09-18T00:25:51.618Z,24.42
2022-09-18T00:26:21.726Z,24.44
2022-09-18T00:26:51.834Z,24.43
2022-09-18T00:27:21.943Z,24.46
2022-09-18T00:27:52.065Z,24.44
2022-09-18T00:28:22.160Z,24.43
2022-09-18T00:28:52.230Z,24.43
2022-09-18T00:29:22.335Z,24.43
2022-09-18T00:29:52.407Z,24.42
2022-09-18T00:30:22.481Z,24.42
2022-09-18T00:30:52.651Z,24.42
2022-09-18T00:31:22.666Z,24.40
2022-09-18T00:31:52.693Z,24.42
2022-09-18T00:32:22.751Z,24.42
2022-09-18T00:32:52.819Z,24.43
2022-09-18T00:33:22.889Z,24.44
2022-09-18T00:33:53.078Z,24.43
2022-09-18T00:34:22.980Z,24.42
2022-09-18T00:34:53.060Z,24.42
2022-09-18T00:35:23.132Z,24.43
2022-09-18T00:35:53.202Z,24.40
2022-09-18T00:36:23.273Z,24.42
2022-09-18T00:36:53.347Z,24.44
2022-09-18T00:37:23.418Z,24.43
2022-09-18T00:37:53.489Z,24.39
2022-09-18T00:38:23.551Z,24.42
2022-09-18T00:38:53.664Z,24.40
2022-09-18T00:39:23.771Z,24.43
2022-09-18T00:39:53.920Z,24.43
2022-09-18T00:40:23.969Z,24.40
2022-09-18T00:40:53.987Z,24.42
2022-09-18T00:41:24.083Z,24.42
2022-09-18T00:41:54.105Z,24.39
2022-09-18T00:42:24.210Z,24.42
2022-09-18T00:42:54.318Z,24.43
2022-09-18T00:43:24.428Z,24.42
2022-09-18T00:43:54.534Z,24.40
2022-09-18T00:44:24.637Z,24.42
2022-09-18T00:44:54.799Z,24.42
2022-09-18T00:45:24.778Z,24.39
2022-09-18T00:45:54.882Z,24.40
2022-09-18T00:46:25.043Z,24.42
2022-09-18T00:46:55.161Z,24.42
2022-09-18T00:47:25.115Z,24.40
2022-09-18T00:47:55.221Z,24.40
2022-09-18T00:48:25.328Z,24.38
2022-09-18T00:48:55.558Z,24.42
2022-09-18T00:49:25.502Z,24.39
2022-09-18T00:49:55.655Z,24.42
2022-09-18T00:50:25.635Z,24.40
2022-09-18T00:50:55.742Z,24.38
2022-09-18T00:51:25.848Z,24.39
2022-09-18T00:51:55.956Z,24.39
2022-09-18T00:52:26.063Z,24.39
2022-09-18T00:52:56.171Z,24.40
2022-09-18T00:53:26.277Z,24.40
2022-09-18T00:53:56.384Z,24.40
2022-09-18T00:54:26.491Z,24.40
2022-09-18T00:54:56.617Z,24.39
2022-09-18T00:55:26.722Z,24.39
2022-09-18T00:55:56.830Z,24.39
2022-09-18T00:56:26.939Z,24.42
2022-09-18T00:56:57.043Z,24.40
2022-09-18T00:57:27.149Z,24.38
2022-09-18T00:57:57.264Z,24.38
2022-09-18T00:58:27.359Z,24.39
2022-09-18T00:58:57.465Z,24.38
2022-09-18T00:59:27.572Z,24.36
2022-09-18T00:59:57.704Z,24.39
2022-09-18T01:00:27.685Z,24.39
2022-09-18T01:00:57.811Z,24.36
2022-09-18T01:01:27.819Z,24.38
2022-09-18T01:01:57.851Z,24.38
2022-09-18T01:02:27.921Z,24.38
2022-09-18T01:02:57.901Z,24.38
2022-09-18T01:03:28.006Z,24.42
2022-09-18T01:03:58.230Z,24.39
2022-09-18T01:04:28.172Z,24.38
2022-09-18T01:04:58.289Z,24.38
2022-09-18T01:05:28.393Z,24.38
2022-09-18T01:05:58.499Z,24.38
2022-09-18T01:06:28.606Z,24.36
2022-09-18T01:06:58.707Z,24.38
2022-09-18T01:07:28.810Z,24.35
2022-09-18T01:07:58.921Z,24.38
2022-09-18T01:08:29.023Z,24.36
2022-09-18T01:08:59.220Z,24.35
2022-09-18T01:09:29.215Z,24.39
2022-09-18T01:09:59.366Z,24.36
2022-09-18T01:10:29.345Z,24.36
2022-09-18T01:10:59.452Z,24.36
2022-09-18T01:11:29.555Z,24.33
2022-09-18T01:11:59.659Z,24.38
2022-09-18T01:12:29.772Z,24.39
2022-09-18T01:12:59.875Z,24.35
2022-09-18T01:13:29.978Z,24.36
2022-09-18T01:14:00.084Z,24.39
2022-09-18T01:14:30.193Z,24.36
2022-09-18T01:15:00.322Z,24.36
2022-09-18T01:15:30.309Z,24.38
2022-09-18T01:16:00.544Z,24.38
2022-09-18T01:16:30.555Z,24.35
2022-09-18T01:17:00.512Z,24.38
2022-09-18T01:17:30.619Z,24.35
2022-09-18T01:18:00.728Z,24.36
2022-09-18T01:18:30.838Z,24.36
2022-09-18T01:19:01.068Z,24.36
2022-09-18T01:19:31.011Z,24.36
2022-09-18T01:20:01.128Z,24.36
2022-09-18T01:20:31.236Z,24.36
2022-09-18T01:21:01.344Z,24.33
2022-09-18T01:21:31.451Z,24.35
2022-09-18T01:22:01.553Z,24.36
2022-09-18T01:22:31.660Z,24.32
2022-09-18T01:23:01.772Z,24.35
2022-09-18T01:23:31.875Z,24.33
2022-09-18T01:24:02.011Z,24.35
2022-09-18T01:24:31.991Z,24.35
2022-09-18T01:25:02.106Z,24.33
2022-09-18T01:25:32.210Z,24.35
2022-09-18T01:26:02.316Z,24.35
2022-09-18T01:26:32.421Z,24.36
2022-09-18T01:27:02.535Z,24.35
2022-09-18T01:27:32.638Z,24.33
2022-09-18T01:28:02.746Z,24.36
2022-09-18T01:28:32.842Z,24.33
2022-09-18T01:29:02.912Z,24.36
2022-09-18T01:29:32.982Z,24.32
2022-09-18T01:30:03.059Z,24.36
2022-09-18T01:30:33.129Z,24.35
2022-09-18T01:31:03.245Z,24.35
2022-09-18T01:31:33.405Z,24.33
2022-09-18T01:32:03.396Z,24.35
2022-09-18T01:32:33.465Z,24.33
2022-09-18T01:33:03.539Z,24.33
2022-09-18T01:33:33.604Z,24.33
2022-09-18T01:34:03.678Z,24.35
2022-09-18T01:34:33.871Z,24.35
2022-09-18T01:35:09.921Z,24.35
2022-09-18T01:35:42.460Z,24.35
2022-09-18T01:36:03.980Z,24.32
2022-09-18T01:36:34.047Z,24.33
2022-09-18T01:37:04.118Z,24.33
2022-09-18T01:37:34.192Z,24.32
2022-09-18T01:38:04.263Z,24.32
2022-09-18T01:38:34.356Z,24.32
2022-09-18T01:39:04.463Z,24.32
2022-09-18T01:39:34.571Z,24.33
2022-09-18T01:40:04.825Z,24.32
2022-09-18T01:40:34.910Z,24.35
2022-09-18T01:41:04.775Z,24.32
2022-09-18T01:41:34.886Z,24.32
2022-09-18T01:42:04.991Z,24.33
2022-09-18T01:42:35.103Z,24.32
2022-09-18T01:43:05.209Z,24.33
2022-09-18T01:43:35.312Z,24.32
2022-09-18T01:44:05.416Z,24.32
2022-09-18T01:44:35.530Z,24.33
2022-09-18T01:45:05.644Z,24.32
2022-09-18T01:45:35.751Z,24.32
2022-09-18T01:46:05.907Z,24.30
2022-09-18T01:46:36.032Z,24.32
2022-09-18T01:47:06.025Z,24.32
2022-09-18T01:47:36.146Z,24.32
2022-09-18T01:48:06.248Z,24.30
2022-09-18T01:48:36.355Z,24.32
2022-09-18T01:49:06.467Z,24.32
2022-09-18T01:49:36.700Z,24.32
2022-09-18T01:50:06.651Z,24.33
2022-09-18T01:50:36.758Z,24.32
2022-09-18T01:51:06.866Z,24.33
2022-09-18T01:51:36.972Z,24.33
2022-09-18T01:52:07.083Z,24.33
2022-09-18T01:52:37.191Z,24.33
2022-09-18T01:53:07.301Z,24.35
2022-09-18T01:53:37.408Z,24.32
2022-09-18T01:54:07.513Z,24.33
2022-09-18T01:54:37.620Z,24.33
2022-09-18T01:55:07.736Z,24.32
2022-09-18T01:55:37.850Z,24.35
2022-09-18T01:56:07.957Z,24.33
2022-09-18T01:56:38.066Z,24.27
2022-09-18T01:57:08.175Z,24.32
2022-09-18T01:57:38.284Z,24.32
2022-09-18T01:58:08.392Z,24.30
2022-09-18T01:58:38.497Z,24.29
2022-09-18T01:59:08.604Z,24.32
2022-09-18T01:59:38.713Z,24.32
2022-09-18T02:00:08.820Z,24.33
2022-09-18T02:00:38.930Z,24.30
2022-09-18T02:01:09.104Z,24.30
2022-09-18T02:01:39.326Z,24.29
2022-09-18T02:02:09.266Z,24.29
2022-09-18T02:02:39.460Z,24.30
2022-09-18T02:03:09.361Z,24.30
2022-09-18T02:03:39.467Z,24.29
2022-09-18T02:04:09.575Z,24.30
2022-09-18T02:04:39.841Z,24.29
2022-09-18T02:05:09.789Z,24.30
2022-09-18T02:05:39.900Z,24.29
2022-09-18T02:06:10.007Z,24.30
2022-09-18T02:06:40.109Z,24.32
2022-09-18T02:07:10.224Z,24.32
2022-09-18T02:07:40.329Z,24.29
2022-09-18T02:08:10.435Z,24.30
2022-09-18T02:08:40.546Z,24.32
2022-09-18T02:09:10.657Z,24.32
2022-09-18T02:09:40.764Z,24.27
2022-09-18T02:10:10.880Z,24.30
2022-09-18T02:10:40.989Z,24.27
2022-09-18T02:11:11.096Z,24.27
2022-09-18T02:11:41.201Z,24.32
2022-09-18T02:12:11.304Z,24.29
2022-09-18T02:12:41.418Z,24.30
2022-09-18T02:13:11.525Z,24.30
2022-09-18T02:13:41.631Z,24.30
2022-09-18T02:14:11.735Z,24.27
2022-09-18T02:14:41.843Z,24.29
2022-09-18T02:15:11.955Z,24.30
2022-09-18T02:15:42.119Z,24.27
2022-09-18T02:16:12.145Z,24.29
2022-09-18T02:16:42.216Z,24.26
2022-09-18T02:17:12.328Z,24.27
2022-09-18T02:17:42.435Z,24.26
2022-09-18T02:18:12.543Z,24.29
2022-09-18T02:18:42.643Z,24.29
2022-09-18T02:19:12.749Z,24.29
2022-09-18T02:19:42.984Z,24.27
2022-09-18T02:20:12.944Z,24.26
2022-09-18T02:20:43.051Z,24.27
2022-09-18T02:21:13.162Z,24.27
2022-09-18T02:21:43.270Z,24.26
2022-09-18T02:22:13.378Z,24.29
2022-09-18T02:22:43.487Z,24.26
2022-09-18T02:23:13.599Z,24.29
2022-09-18T02:23:43.707Z,24.26
2022-09-18T02:24:13.816Z,24.26
2022-09-18T02:24:43.923Z,24.27
2022-09-18T02:25:14.029Z,24.29
2022-09-18T02:25:44.141Z,24.27
2022-09-18T02:26:14.246Z,24.27
2022-09-18T02:26:44.355Z,24.30
2022-09-18T02:27:14.462Z,24.29
2022-09-18T02:27:44.588Z,24.27
2022-09-18T02:28:14.678Z,24.27
2022-09-18T02:28:44.787Z,24.27
2022-09-18T02:29:14.897Z,24.26
2022-09-18T02:29:45.012Z,24.26
2022-09-18T02:30:15.123Z,24.27
2022-09-18T02:30:45.231Z,24.27
2022-09-18T02:31:15.428Z,24.26
2022-09-18T02:31:45.509Z,24.27
2022-09-18T02:32:15.433Z,24.27
2022-09-18T02:32:45.543Z,24.26
2022-09-18T02:33:15.646Z,24.27
2022-09-18T02:33:45.754Z,24.26
2022-09-18T02:34:15.866Z,24.26
2022-09-18T02:34:46.107Z,24.26
2022-09-18T02:35:16.050Z,24.26
2022-09-18T02:35:46.165Z,24.26
2022-09-18T02:36:16.272Z,24.26
2022-09-18T02:36:46.382Z,24.29
2022-09-18T02:37:16.492Z,24.27
2022-09-18T02:37:46.602Z,24.27
2022-09-18T02:38:16.711Z,24.26
2022-09-18T02:38:46.726Z,24.26
2022-09-18T02:39:16.745Z,24.24
2022-09-18T02:39:46.771Z,24.27
2022-09-18T02:40:16.868Z,24.24
2022-09-18T02:40:46.860Z,24.24
2022-09-18T02:41:16.880Z,24.22
2022-09-18T02:41:46.901Z,24.23
2022-09-18T02:42:16.932Z,24.24
2022-09-18T02:42:46.945Z,24.24
2022-09-18T02:43:16.962Z,24.23
2022-09-18T02:43:46.981Z,24.24
2022-09-18T02:44:17.022Z,24.23
2022-09-18T02:44:47.043Z,24.26
2022-09-18T02:45:17.062Z,24.24
2022-09-18T02:45:47.082Z,24.24
2022-09-18T02:46:17.150Z,24.26
2022-09-18T02:46:47.231Z,24.23
2022-09-18T02:47:17.249Z,24.24
2022-09-18T02:47:47.267Z,24.24
2022-09-18T02:48:17.282Z,24.26
2022-09-18T02:48:47.307Z,24.23
2022-09-18T02:49:17.364Z,24.26
2022-09-18T02:49:47.380Z,24.23
2022-09-18T02:50:17.522Z,24.23
2022-09-18T02:50:47.468Z,24.23
2022-09-18T02:51:17.487Z,24.22
2022-09-18T02:51:47.509Z,24.23
2022-09-18T02:52:17.520Z,24.22
2022-09-18T02:52:47.541Z,24.23
2022-09-18T02:53:17.557Z,24.23
2022-09-18T02:53:47.575Z,24.23
2022-09-18T02:54:17.619Z,24.19
2022-09-18T02:54:47.639Z,24.22
2022-09-18T02:55:17.659Z,24.23
2022-09-18T02:55:47.676Z,24.23
2022-09-18T02:56:17.693Z,24.20
2022-09-18T02:56:47.712Z,24.22
2022-09-18T02:57:17.728Z,24.23
2022-09-18T02:57:47.748Z,24.22
2022-09-18T02:58:17.766Z,24.23
2022-09-18T02:58:47.782Z,24.20
2022-09-18T02:59:17.822Z,24.22
2022-09-18T02:59:47.840Z,24.22
2022-09-18T03:00:17.862Z,24.22
2022-09-18T03:00:47.887Z,24.22
2022-09-18T03:01:17.930Z,24.20
2022-09-18T03:01:48.068Z,24.19
2022-09-18T03:02:18.165Z,24.20
2022-09-18T03:02:48.174Z,24.22
2022-09-18T03:03:18.115Z,24.22
2022-09-18T03:03:48.202Z,24.23
2022-09-18T03:04:18.210Z,24.20
2022-09-18T03:04:48.232Z,24.19
2022-09-18T03:05:18.250Z,24.23
2022-09-18T03:05:48.386Z,24.19
2022-09-18T03:06:18.364Z,24.23
2022-09-18T03:06:48.381Z,24.22
2022-09-18T03:07:18.398Z,24.23
2022-09-18T03:07:48.420Z,24.22
2022-09-18T03:08:18.435Z,24.22
2022-09-18T03:08:48.488Z,24.23
2022-09-18T03:09:18.509Z,24.22
2022-09-18T03:09:48.528Z,24.23
2022-09-18T03:10:18.549Z,24.23
2022-09-18T03:10:48.568Z,24.20
2022-09-18T03:11:18.584Z,24.20
2022-09-18T03:11:48.600Z,24.19
2022-09-18T03:12:18.617Z,24.20
2022-09-18T03:12:48.637Z,24.22
2022-09-18T03:13:18.665Z,24.20
2022-09-18T03:13:48.687Z,24.19
2022-09-18T03:14:18.703Z,24.20
2022-09-18T03:14:48.723Z,24.22
2022-09-18T03:15:18.739Z,24.20
2022-09-18T03:15:48.821Z,24.23
2022-09-18T03:16:18.913Z,24.20
2022-09-18T03:16:48.821Z,24.22
2022-09-18T03:17:18.836Z,24.20
2022-09-18T03:17:48.850Z,24.19
2022-09-18T03:18:18.866Z,24.20
2022-09-18T03:18:48.919Z,24.20
2022-09-18T03:19:18.943Z,24.23
2022-09-18T03:19:48.968Z,24.20
2022-09-18T03:20:18.983Z,24.19
2022-09-18T03:20:49.001Z,24.20
2022-09-18T03:21:19.138Z,24.22
2022-09-18T03:21:49.116Z,24.22
2022-09-18T03:22:19.132Z,24.19
2022-09-18T03:22:49.149Z,24.19
2022-09-18T03:23:19.168Z,24.19
2022-09-18T03:23:49.206Z,24.20
2022-09-18T03:24:19.227Z,24.22
2022-09-18T03:24:49.252Z,24.20
2022-09-18T03:25:19.265Z,24.22
2022-09-18T03:25:49.280Z,24.19
2022-09-18T03:26:19.297Z,24.19
2022-09-18T03:26:49.320Z,24.20
2022-09-18T03:27:19.342Z,24.20
2022-09-18T03:27:49.363Z,24.17
2022-09-18T03:28:19.379Z,24.19
2022-09-18T03:28:49.507Z,24.20
2022-09-18T03:29:19.494Z,24.15
2022-09-18T03:29:49.601Z,24.17
2022-09-18T03:30:19.703Z,24.17
2022-09-18T03:30:49.816Z,24.20
2022-09-18T03:31:19.988Z,24.17
2022-09-18T03:31:50.069Z,24.20
2022-09-18T03:32:20.059Z,24.17
2022-09-18T03:32:50.170Z,24.16
2022-09-18T03:33:20.283Z,24.16
2022-09-18T03:33:50.466Z,24.19
2022-09-18T03:34:20.430Z,24.16
2022-09-18T03:34:50.541Z,24.17
2022-09-18T03:35:20.647Z,24.19
2022-09-18T03:35:50.752Z,24.16
2022-09-18T03:36:20.856Z,24.16
2022-09-18T03:36:51.115Z,24.19
2022-09-18T03:37:21.062Z,24.19
2022-09-18T03:37:51.169Z,24.15
2022-09-18T03:38:21.277Z,24.17
2022-09-18T03:38:51.326Z,24.17
2022-09-18T03:39:21.355Z,24.20
2022-09-18T03:39:51.536Z,24.17
2022-09-18T03:40:21.525Z,24.19
2022-09-18T03:40:51.526Z,24.16
2022-09-18T03:41:21.550Z,24.16
2022-09-18T03:41:51.571Z,24.19
2022-09-18T03:42:21.588Z,24.19
2022-09-18T03:42:51.605Z,24.19
2022-09-18T03:43:21.625Z,24.19
2022-09-18T03:43:51.668Z,24.16
2022-09-18T03:44:21.688Z,24.15
2022-09-18T03:44:51.707Z,24.16
2022-09-18T03:45:21.726Z,24.16
2022-09-18T03:45:51.747Z,24.15
2022-09-18T03:46:21.807Z,24.17
2022-09-18T03:46:51.889Z,24.15
2022-09-18T03:47:21.916Z,24.16
2022-09-18T03:47:51.939Z,24.15
2022-09-18T03:48:21.964Z,24.15
2022-09-18T03:48:52.069Z,24.16
2022-09-18T03:49:22.092Z,24.16
2022-09-18T03:49:52.111Z,24.16
2022-09-18T03:50:22.134Z,24.16
2022-09-18T03:50:52.156Z,24.16
2022-09-18T03:51:22.170Z,24.16
2022-09-18T03:51:52.191Z,24.16
2022-09-18T03:52:22.328Z,24.13
2022-09-18T03:52:52.318Z,24.16
2022-09-18T03:53:22.332Z,24.15
2022-09-18T03:53:52.386Z,24.16
2022-09-18T03:54:22.406Z,24.15
2022-09-18T03:54:52.429Z,24.16
2022-09-18T03:55:22.456Z,24.15
2022-09-18T03:55:52.484Z,24.16
2022-09-18T03:56:22.490Z,24.15
2022-09-18T03:56:52.508Z,24.15
2022-09-18T03:57:22.527Z,24.15
2022-09-18T03:57:52.547Z,24.16
2022-09-18T03:58:22.565Z,24.16
2022-09-18T03:58:52.581Z,24.17
2022-09-18T03:59:22.603Z,24.15
2022-09-18T03:59:52.634Z,24.15
2022-09-18T04:00:22.649Z,24.16
2022-09-18T04:00:52.690Z,24.13
2022-09-18T04:01:22.815Z,24.13
2022-09-18T04:01:52.885Z,24.16
2022-09-18T04:02:22.912Z,24.16
2022-09-18T04:02:53.031Z,24.13
2022-09-18T04:03:23.024Z,24.15
2022-09-18T04:03:53.047Z,24.12
2022-09-18T04:04:23.076Z,24.16
2022-09-18T04:04:53.092Z,24.15
2022-09-18T04:05:23.114Z,24.13
2022-09-18T04:05:53.132Z,24.15
2022-09-18T04:06:23.152Z,24.13
2022-09-18T04:06:53.169Z,24.13
2022-09-18T04:07:23.188Z,24.16
2022-09-18T04:07:53.326Z,24.13
2022-09-18T04:08:23.312Z,24.15
2022-09-18T04:08:53.330Z,24.16
2022-09-18T04:09:23.351Z,24.15
2022-09-18T04:09:53.366Z,24.17
2022-09-18T04:10:23.389Z,24.16
2022-09-18T04:10:53.403Z,24.15
2022-09-18T04:11:23.423Z,24.16
2022-09-18T04:11:53.441Z,24.13
2022-09-18T04:12:23.474Z,24.15
2022-09-18T04:12:53.494Z,24.13
2022-09-18T04:13:23.513Z,24.15
2022-09-18T04:13:53.531Z,24.12
2022-09-18T04:14:27.926Z,24.13
2022-09-18T04:14:53.596Z,24.13
2022-09-18T04:15:23.626Z,24.12
2022-09-18T04:15:53.766Z,24.12
2022-09-18T04:16:23.698Z,24.12
2022-09-18T04:16:53.735Z,24.12
2022-09-18T04:17:23.756Z,24.12
2022-09-18T04:17:53.766Z,24.12
2022-09-18T04:18:23.785Z,24.15
2022-09-18T04:18:53.808Z,24.12
2022-09-18T04:19:23.830Z,24.12
2022-09-18T04:19:53.973Z,24.15
2022-09-18T04:20:23.959Z,24.13
2022-09-18T04:20:54.016Z,24.15
2022-09-18T04:21:24.033Z,24.13
2022-09-18T04:21:54.054Z,24.13
2022-09-18T04:22:24.069Z,24.12
2022-09-18T04:22:54.089Z,24.11
2022-09-18T04:23:24.232Z,24.12
2022-09-18T04:23:54.210Z,24.11
2022-09-18T04:24:24.236Z,24.13
2022-09-18T04:24:54.257Z,24.13
2022-09-18T04:25:24.283Z,24.11
2022-09-18T04:25:54.305Z,24.15
2022-09-18T04:26:24.323Z,24.11
2022-09-18T04:26:54.340Z,24.11
2022-09-18T04:27:24.368Z,24.12
2022-09-18T04:27:54.387Z,24.11
2022-09-18T04:28:24.392Z,24.12
2022-09-18T04:28:54.496Z,24.13
2022-09-18T04:29:24.602Z,24.12
2022-09-18T04:29:54.709Z,24.13
2022-09-18T04:30:24.823Z,24.11
2022-09-18T04:30:55.001Z,24.12
2022-09-18T04:31:25.141Z,24.12
2022-09-18T04:31:55.012Z,24.12
2022-09-18T04:32:25.114Z,24.09
2022-09-18T04:32:55.221Z,24.12
2022-09-18T04:33:25.325Z,24.12
2022-09-18T04:33:55.438Z,24.11
2022-09-18T04:34:25.539Z,24.12
2022-09-18T04:34:55.651Z,24.12
2022-09-18T04:35:25.765Z,24.13
2022-09-18T04:35:55.867Z,24.15
2022-09-18T04:36:25.974Z,24.12
2022-09-18T04:36:56.081Z,24.11
2022-09-18T04:37:26.191Z,24.13
2022-09-18T04:37:56.292Z,24.12
2022-09-18T04:38:26.528Z,24.11
2022-09-18T04:38:56.503Z,24.12
2022-09-18T04:39:26.521Z,24.11
2022-09-18T04:39:56.585Z,24.09
2022-09-18T04:40:26.666Z,24.12
2022-09-18T04:40:56.601Z,24.12
2022-09-18T04:41:26.623Z,24.09
2022-09-18T04:41:56.641Z,24.12
2022-09-18T04:42:26.663Z,24.09
2022-09-18T04:42:56.680Z,24.09
2022-09-18T04:43:26.705Z,24.11
2022-09-18T04:43:56.724Z,24.09
2022-09-18T04:44:26.748Z,24.12
2022-09-18T04:44:56.764Z,24.11
2022-09-18T04:45:26.788Z,24.08
2022-09-18T04:45:56.810Z,24.12
2022-09-18T04:46:26.885Z,24.11
2022-09-18T04:46:57.036Z,24.08
2022-09-18T04:47:26.967Z,24.11
2022-09-18T04:47:56.991Z,24.09
2022-09-18T04:48:27.016Z,24.12
2022-09-18T04:48:57.036Z,24.09
2022-09-18T04:49:27.052Z,24.09
2022-09-18T04:49:57.069Z,24.09
2022-09-18T04:50:27.086Z,24.11
2022-09-18T04:50:57.103Z,24.12
2022-09-18T04:51:27.131Z,24.11
2022-09-18T04:51:57.140Z,24.08
2022-09-18T04:52:27.153Z,24.09
2022-09-18T04:52:57.171Z,24.06
2022-09-18T04:53:27.194Z,24.09
2022-09-18T04:53:57.330Z,24.09
2022-09-18T04:54:27.313Z,24.11
2022-09-18T04:54:57.333Z,24.11
2022-09-18T04:55:27.355Z,24.09
2022-09-18T04:55:57.375Z,24.11
2022-09-18T04:56:27.388Z,24.09
2022-09-18T04:56:57.410Z,24.08
2022-09-18T04:57:27.419Z,24.08
2022-09-18T04:57:57.437Z,24.09
2022-09-18T04:58:27.462Z,24.09
2022-09-18T04:58:57.482Z,24.11
2022-09-18T04:59:27.501Z,24.08
2022-09-18T04:59:57.540Z,24.11
2022-09-18T05:00:27.586Z,24.08
2022-09-18T05:00:57.703Z,24.06
2022-09-18T05:01:27.703Z,24.06
2022-09-18T05:01:57.779Z,24.09
2022-09-18T05:02:27.872Z,24.08
2022-09-18T05:02:57.860Z,24.08
2022-09-18T05:03:27.888Z,24.09
2022-09-18T05:03:57.906Z,24.06
2022-09-18T05:04:27.927Z,24.08
2022-09-18T05:04:57.961Z,24.05
2022-09-18T05:05:27.983Z,24.09
2022-09-18T05:05:58.003Z,24.09
2022-09-18T05:06:28.036Z,24.09
2022-09-18T05:06:58.042Z,24.06
2022-09-18T05:07:28.072Z,24.06
2022-09-18T05:07:58.087Z,24.08
2022-09-18T05:08:28.105Z,24.06
2022-09-18T05:08:58.130Z,24.06
2022-09-18T05:09:28.275Z,24.09
2022-09-18T05:09:58.256Z,24.08
2022-09-18T05:10:28.275Z,24.08
2022-09-18T05:10:58.296Z,24.09
2022-09-18T05:11:28.510Z,24.06
2022-09-18T05:11:58.409Z,24.06
2022-09-18T05:12:28.443Z,24.05
2022-09-18T05:12:58.459Z,24.06
2022-09-18T05:13:28.482Z,24.04
2022-09-18T05:13:58.504Z,24.04
2022-09-18T05:14:28.533Z,24.06
2022-09-18T05:14:58.551Z,24.05
2022-09-18T05:15:28.565Z,24.06
2022-09-18T05:15:58.624Z,24.06
2022-09-18T05:16:28.682Z,24.05
2022-09-18T05:16:58.724Z,24.06
2022-09-18T05:17:28.743Z,24.05
2022-09-18T05:17:58.759Z,24.06
2022-09-18T05:18:28.776Z,24.06
2022-09-18T05:18:58.791Z,24.05
2022-09-18T05:19:28.825Z,24.06
2022-09-18T05:19:58.840Z,24.05
2022-09-18T05:20:28.860Z,24.05
2022-09-18T05:20:58.871Z,24.05
2022-09-18T05:21:28.900Z,24.06
2022-09-18T05:21:58.914Z,24.06
2022-09-18T05:22:28.935Z,24.06
2022-09-18T05:22:58.950Z,24.05
2022-09-18T05:23:28.965Z,24.05
2022-09-18T05:23:59.021Z,24.01
2022-09-18T05:24:29.049Z,24.08
2022-09-18T05:24:59.185Z,24.05
2022-09-18T05:25:29.155Z,24.04
2022-09-18T05:25:59.179Z,24.06
2022-09-18T05:26:29.199Z,24.05
2022-09-18T05:26:59.211Z,24.04
2022-09-18T05:27:29.227Z,24.05
2022-09-18T05:27:59.240Z,24.05
2022-09-18T05:28:29.244Z,24.04
2022-09-18T05:28:59.351Z,24.05
2022-09-18T05:29:29.459Z,24.01
2022-09-18T05:29:59.570Z,24.02
2022-09-18T05:30:29.673Z,24.05
2022-09-18T05:30:59.867Z,24.04
2022-09-18T05:31:29.954Z,24.02
2022-09-18T05:31:59.959Z,24.04
2022-09-18T05:32:30.063Z,24.05
2022-09-18T05:33:00.173Z,24.05
2022-09-18T05:33:30.277Z,24.01
2022-09-18T05:34:00.385Z,24.01
2022-09-18T05:34:30.653Z,24.04
2022-09-18T05:35:00.506Z,24.05
2022-09-18T05:35:30.614Z,24.04
2022-09-18T05:36:00.722Z,24.02
2022-09-18T05:36:30.826Z,24.05
2022-09-18T05:37:00.935Z,24.04
2022-09-18T05:37:31.036Z,24.02
2022-09-18T05:38:01.139Z,24.04
2022-09-18T05:38:31.263Z,24.04
2022-09-18T05:39:01.379Z,24.02
2022-09-18T05:39:31.276Z,24.04
2022-09-18T05:40:01.363Z,24.04
2022-09-18T05:40:31.691Z,24.02
2022-09-18T05:41:01.486Z,24.04
2022-09-18T05:41:31.501Z,24.05
2022-09-18T05:42:01.523Z,24.02
2022-09-18T05:42:31.537Z,24.02
2022-09-18T05:43:01.559Z,24.04
2022-09-18T05:43:31.586Z,23.99
2022-09-18T05:44:01.619Z,24.02
2022-09-18T05:44:31.641Z,24.02
2022-09-18T05:45:02.191Z,24.04
2022-09-18T05:45:31.747Z,24.04
2022-09-18T05:46:01.763Z,24.02
2022-09-18T05:46:31.859Z,24.02
2022-09-18T05:47:01.934Z,24.02
2022-09-18T05:47:31.961Z,24.02
2022-09-18T05:48:01.989Z,24.05
2022-09-18T05:48:32.006Z,24.02
2022-09-18T05:49:02.053Z,24.02
2022-09-18T05:49:32.069Z,24.04
2022-09-18T05:50:02.122Z,24.02
2022-09-18T05:50:32.138Z,24.02
2022-09-18T05:51:02.154Z,24.01
2022-09-18T05:51:32.171Z,24.04
2022-09-18T05:52:02.180Z,24.02
2022-09-18T05:52:32.190Z,24.01
2022-09-18T05:53:02.206Z,24.02
2022-09-18T05:53:32.222Z,24.02
2022-09-18T05:54:02.443Z,24.01
2022-09-18T05:54:32.358Z,24.04
2022-09-18T05:55:02.372Z,24.04
2022-09-18T05:55:32.389Z,24.02
2022-09-18T05:56:02.530Z,24.04
2022-09-18T05:56:32.518Z,24.02
2022-09-18T05:57:02.518Z,24.02
2022-09-18T05:57:32.537Z,24.01
2022-09-18T05:58:02.558Z,24.02
2022-09-18T05:58:32.573Z,24.04
2022-09-18T05:59:02.611Z,24.02
2022-09-18T05:59:32.629Z,24.05
2022-09-18T06:00:02.652Z,24.01
2022-09-18T06:00:32.669Z,24.02
2022-09-18T06:01:02.684Z,24.01
2022-09-18T06:01:32.744Z,24.02
2022-09-18T06:02:02.782Z,24.02
2022-09-18T06:02:32.804Z,24.01
2022-09-18T06:03:02.848Z,24.04
2022-09-18T06:03:32.841Z,24.01
2022-09-18T06:04:02.877Z,24.02
2022-09-18T06:04:32.894Z,24.01
2022-09-18T06:05:02.921Z,24.01
2022-09-18T06:05:32.932Z,24.01
2022-09-18T06:06:02.947Z,24.02
2022-09-18T06:06:32.962Z,24.02
2022-09-18T06:07:02.974Z,24.01
2022-09-18T06:07:32.996Z,23.99
2022-09-18T06:08:03.010Z,23.99
2022-09-18T06:08:33.027Z,24.01
2022-09-18T06:09:03.109Z,23.99
2022-09-18T06:09:33.103Z,24.02
2022-09-18T06:10:03.128Z,23.99
2022-09-18T06:10:33.148Z,23.99
2022-09-18T06:11:03.165Z,24.01
2022-09-18T06:11:33.308Z,23.99
2022-09-18T06:12:03.295Z,23.99
2022-09-18T06:12:33.308Z,24.01
2022-09-18T06:13:03.322Z,24.01
2022-09-18T06:13:33.340Z,23.99
2022-09-18T06:14:03.362Z,23.99
2022-09-18T06:14:33.381Z,24.01
2022-09-18T06:15:03.406Z,23.99
2022-09-18T06:15:33.422Z,24.02
2022-09-18T06:16:03.523Z,24.01
2022-09-18T06:16:33.569Z,24.01
2022-09-18T06:17:03.487Z,23.99
2022-09-18T06:17:33.513Z,23.99
2022-09-18T06:18:03.534Z,23.98
2022-09-18T06:18:33.551Z,23.99
2022-09-18T06:19:03.574Z,24.01
2022-09-18T06:19:33.592Z,23.99
2022-09-18T06:20:03.611Z,23.99
2022-09-18T06:20:33.661Z,23.98
2022-09-18T06:21:03.679Z,23.99
2022-09-18T06:21:33.695Z,24.01
2022-09-18T06:22:03.710Z,23.98
2022-09-18T06:22:33.725Z,23.98
2022-09-18T06:23:03.743Z,23.99
2022-09-18T06:23:33.773Z,23.98
2022-09-18T06:24:03.841Z,23.98
2022-09-18T06:24:33.888Z,23.98
2022-09-18T06:25:03.907Z,23.98
2022-09-18T06:25:33.927Z,23.99
2022-09-18T06:26:03.957Z,24.01
2022-09-18T06:26:33.976Z,23.98
2022-09-18T06:27:04.123Z,23.98